sensor_id;sensor_type;location;lat;lon;timestamp;pressure;altitude;pressure_sealevel;temperature;humidity
71948;BME280;63257;55.082;38.772;2023-02-03T00:00:32;99312.22;;;0.46;70.67
71948;BME280;63257;55.082;38.772;2023-02-03T00:02:59;99312.06;;;0.54;70.53
71948;BME280;63257;55.082;38.772;2023-02-03T00:05:25;99297.75;;;0.36;71.10
71948;BME280;63257;55.082;38.772;2023-02-03T00:07:51;99300.59;;;0.25;71.37
71948;BME280;63257;55.082;38.772;2023-02-03T00:10:17;99320.09;;;0.43;70.96
71948;BME280;63257;55.082;38.772;2023-02-03T00:12:50;99321.66;;;0.50;70.67
71948;BME280;63257;55.082;38.772;2023-02-03T00:15:17;99323.41;;;0.50;71.45
71948;BME280;63257;55.082;38.772;2023-02-03T00:17:43;99322.38;;;0.57;70.57
71948;BME280;63257;55.082;38.772;2023-02-03T00:20:10;99321.66;;;0.50;70.67
71948;BME280;63257;55.082;38.772;2023-02-03T00:22:36;99322.31;;;0.60;70.81
71948;BME280;63257;55.082;38.772;2023-02-03T00:25:03;99321.38;;;0.63;70.48
71948;BME280;63257;55.082;38.772;2023-02-03T00:27:30;99312.72;;;0.64;70.47
71948;BME280;63257;55.082;38.772;2023-02-03T00:29:57;99323.09;;;0.64;70.72
71948;BME280;63257;55.082;38.772;2023-02-03T00:32:23;99309.41;;;0.57;70.85
71948;BME280;63257;55.082;38.772;2023-02-03T00:34:49;99317.78;;;0.70;70.50
71948;BME280;63257;55.082;38.772;2023-02-03T00:37:15;99313.56;;;0.66;70.17
71948;BME280;63257;55.082;38.772;2023-02-03T00:39:41;99305.81;;;0.63;70.27
71948;BME280;63257;55.082;38.772;2023-02-03T00:42:07;99315.47;;;0.58;70.15
71948;BME280;63257;55.082;38.772;2023-02-03T00:44:33;99300.69;;;0.60;70.26
71948;BME280;63257;55.082;38.772;2023-02-03T00:46:59;99317.94;;;0.62;70.53
71948;BME280;63257;55.082;38.772;2023-02-03T00:49:24;99308.34;;;0.64;70.84
71948;BME280;63257;55.082;38.772;2023-02-03T00:51:51;99283.63;;;0.48;70.87
71948;BME280;63257;55.082;38.772;2023-02-03T00:54:16;99311.91;;;0.62;70.75
71948;BME280;63257;55.082;38.772;2023-02-03T00:56:42;99319.47;;;0.71;70.46
71948;BME280;63257;55.082;38.772;2023-02-03T00:59:09;99314.47;;;0.63;71.14
71948;BME280;63257;55.082;38.772;2023-02-03T01:01:35;99313.47;;;0.69;70.79
71948;BME280;63257;55.082;38.772;2023-02-03T01:04:02;99318.88;;;0.60;71.01
71948;BME280;63257;55.082;38.772;2023-02-03T01:06:28;99303.19;;;0.63;70.41
71948;BME280;63257;55.082;38.772;2023-02-03T01:08:55;99300.56;;;0.64;70.50
71948;BME280;63257;55.082;38.772;2023-02-03T01:11:23;99303.16;;;0.66;70.35
71948;BME280;63257;55.082;38.772;2023-02-03T01:13:50;99280.19;;;0.47;71.04
71948;BME280;63257;55.082;38.772;2023-02-03T01:16:18;99304.13;;;0.62;71.08
71948;BME280;63257;55.082;38.772;2023-02-03T01:18:45;99299.72;;;0.64;71.24
71948;BME280;63257;55.082;38.772;2023-02-03T01:21:13;99290.28;;;0.60;71.20
71948;BME280;63257;55.082;38.772;2023-02-03T01:23:40;99292.09;;;0.58;71.24
71948;BME280;63257;55.082;38.772;2023-02-03T01:26:08;99277.56;;;0.49;71.70
71948;BME280;63257;55.082;38.772;2023-02-03T01:28:35;99283.69;;;0.45;71.85
71948;BME280;63257;55.082;38.772;2023-02-03T01:31:13;99288.78;;;0.51;71.49
71948;BME280;63257;55.082;38.772;2023-02-03T01:33:40;99288.66;;;0.56;71.58
71948;BME280;63257;55.082;38.772;2023-02-03T01:36:07;99273.22;;;0.49;71.26
71948;BME280;63257;55.082;38.772;2023-02-03T01:38:35;99290.28;;;0.60;71.46
71948;BME280;63257;55.082;38.772;2023-02-03T01:41:02;99291.13;;;0.60;71.79
71948;BME280;63257;55.082;38.772;2023-02-03T01:43:30;99287.81;;;0.55;71.80
71948;BME280;63257;55.082;38.772;2023-02-03T01:46:04;99285.91;;;0.63;71.14
71948;BME280;63257;55.082;38.772;2023-02-03T01:48:32;99290.22;;;0.63;71.47
71948;BME280;63257;55.082;38.772;2023-02-03T01:51:03;99291.09;;;0.63;71.57
71948;BME280;63257;55.082;38.772;2023-02-03T01:53:30;99288.53;;;0.60;71.45
71948;BME280;63257;55.082;38.772;2023-02-03T01:55:59;99295.41;;;0.63;71.96
71948;BME280;63257;55.082;38.772;2023-02-03T01:58:28;99289.25;;;0.67;71.36
71948;BME280;63257;55.082;38.772;2023-02-03T02:00:57;99288.38;;;0.68;71.52
71948;BME280;63257;55.082;38.772;2023-02-03T02:03:31;99280.66;;;0.65;71.45
71948;BME280;63257;55.082;38.772;2023-02-03T02:06:05;99285.94;;;0.60;71.70
71948;BME280;63257;55.082;38.772;2023-02-03T02:08:32;99270.44;;;0.57;71.07
71948;BME280;63257;55.082;38.772;2023-02-03T02:10:59;99292.69;;;0.69;71.68
71948;BME280;63257;55.082;38.772;2023-02-03T02:13:27;99287.53;;;0.67;71.51
71948;BME280;63257;55.082;38.772;2023-02-03T02:27:25;99276.28;;;0.67;71.93
71948;BME280;63257;55.082;38.772;2023-02-03T02:40:23;99259.97;;;0.62;72.43
71948;BME280;63257;55.082;38.772;2023-02-03T02:45:33;99262.28;;;0.74;71.87
71948;BME280;63257;55.082;38.772;2023-02-03T02:48:52;99267.94;;;0.90;71.62
71948;BME280;63257;55.082;38.772;2023-02-03T02:50:54;99268.84;;;0.88;71.96
71948;BME280;63257;55.082;38.772;2023-02-03T02:53:24;99275.94;;;0.81;72.19
71948;BME280;63257;55.082;38.772;2023-02-03T02:55:53;99259.72;;;0.71;71.69
71948;BME280;63257;55.082;38.772;2023-02-03T02:58:22;99273.38;;;0.79;72.24
71948;BME280;63257;55.082;38.772;2023-02-03T03:00:49;99278.41;;;0.87;71.93
71948;BME280;63257;55.082;38.772;2023-02-03T03:03:21;99270.56;;;0.89;71.58
71948;BME280;63257;55.082;38.772;2023-02-03T03:06:25;99266.34;;;0.84;71.57
71948;BME280;63257;55.082;38.772;2023-02-03T03:08:59;99269.72;;;0.88;71.65
71948;BME280;63257;55.082;38.772;2023-02-03T03:11:30;99254.28;;;0.82;71.89
71948;BME280;63257;55.082;38.772;2023-02-03T03:13:58;99268.88;;;0.86;71.67
71948;BME280;63257;55.082;38.772;2023-02-03T03:16:29;99264.63;;;0.83;72.16
71948;BME280;63257;55.082;38.772;2023-02-03T03:19:01;99269.00;;;0.81;72.15
71948;BME280;63257;55.082;38.772;2023-02-03T03:21:42;99276.72;;;0.84;72.13
71948;BME280;63257;55.082;38.772;2023-02-03T03:24:17;99266.47;;;0.80;72.86
71948;BME280;63257;55.082;38.772;2023-02-03T03:29:27;99272.59;;;0.77;72.67
71948;BME280;63257;55.082;38.772;2023-02-03T03:31:53;99276.03;;;0.78;72.50
71948;BME280;63257;55.082;38.772;2023-02-03T03:34:19;99281.75;;;0.92;72.48
71948;BME280;63257;55.082;38.772;2023-02-03T03:39:38;99280.16;;;0.87;72.83
71948;BME280;63257;55.082;38.772;2023-02-03T03:44:57;99263.75;;;0.84;72.44
71948;BME280;63257;55.082;38.772;2023-02-03T03:47:53;99275.63;;;0.95;72.11
71948;BME280;63257;55.082;38.772;2023-02-03T03:50:24;99275.84;;;0.86;72.33
71948;BME280;63257;55.082;38.772;2023-02-03T03:52:53;99267.25;;;0.82;72.63
71948;BME280;63257;55.082;38.772;2023-02-03T03:55:20;99262.16;;;0.79;72.59
71948;BME280;63257;55.082;38.772;2023-02-03T03:57:54;99274.88;;;0.90;72.45
71948;BME280;63257;55.082;38.772;2023-02-03T04:00:22;99281.72;;;0.94;72.62
71948;BME280;63257;55.082;38.772;2023-02-03T04:02:53;99280.88;;;0.92;73.01
71948;BME280;63257;55.082;38.772;2023-02-03T04:05:21;99278.06;;;1.01;72.60
71948;BME280;63257;55.082;38.772;2023-02-03T04:07:47;99275.41;;;1.02;71.90
71948;BME280;63257;55.082;38.772;2023-02-03T04:10:20;99277.88;;;1.09;72.25
71948;BME280;63257;55.082;38.772;2023-02-03T04:12:51;99274.44;;;1.07;72.27
71948;BME280;63257;55.082;38.772;2023-02-03T04:15:16;99281.22;;;1.12;72.25
71948;BME280;63257;55.082;38.772;2023-02-03T04:17:42;99283.97;;;1.08;71.95
71948;BME280;63257;55.082;38.772;2023-02-03T04:20:08;99280.53;;;1.07;72.42
71948;BME280;63257;55.082;38.772;2023-02-03T04:22:35;99285.00;;;1.00;72.99
71948;BME280;63257;55.082;38.772;2023-02-03T04:25:00;99282.47;;;0.99;72.80
71948;BME280;63257;55.082;38.772;2023-02-03T04:27:28;99281.50;;;1.01;72.66
71948;BME280;63257;55.082;38.772;2023-02-03T04:29:54;99273.75;;;1.00;72.40
71948;BME280;63257;55.082;38.772;2023-02-03T04:32:20;99243.97;;;0.79;72.41
71948;BME280;63257;55.082;38.772;2023-02-03T04:34:46;99280.88;;;0.92;73.35
71948;BME280;63257;55.082;38.772;2023-02-03T04:37:12;99279.19;;;0.91;72.92
71948;BME280;63257;55.082;38.772;2023-02-03T04:39:37;99286.78;;;0.98;72.80
71948;BME280;63257;55.082;38.772;2023-02-03T04:42:03;99272.91;;;0.99;72.92
71948;BME280;63257;55.082;38.772;2023-02-03T04:44:29;99279.94;;;0.94;73.34
71948;BME280;63257;55.082;38.772;2023-02-03T04:46:56;99282.28;;;1.05;72.90
71948;BME280;63257;55.082;38.772;2023-02-03T04:49:22;99271.16;;;1.00;73.08
71948;BME280;63257;55.082;38.772;2023-02-03T04:51:48;99290.91;;;1.07;72.78
71948;BME280;63257;55.082;38.772;2023-02-03T04:54:14;99290.75;;;1.13;73.07
71948;BME280;63257;55.082;38.772;2023-02-03T04:56:40;99292.47;;;1.14;72.68
71948;BME280;63257;55.082;38.772;2023-02-03T04:59:06;99287.50;;;1.05;72.86
71948;BME280;63257;55.082;38.772;2023-02-03T05:01:32;99285.56;;;1.13;73.24
71948;BME280;63257;55.082;38.772;2023-02-03T05:03:58;99271.06;;;1.05;72.73
71948;BME280;63257;55.082;38.772;2023-02-03T05:06:25;99286.38;;;1.14;72.41
71948;BME280;63257;55.082;38.772;2023-02-03T05:08:51;99281.28;;;1.11;72.85
71948;BME280;63257;55.082;38.772;2023-02-03T05:11:19;99273.59;;;1.06;73.07
71948;BME280;63257;55.082;38.772;2023-02-03T05:13:45;99293.22;;;1.20;72.67
71948;BME280;63257;55.082;38.772;2023-02-03T05:16:11;99279.19;;;1.25;72.98
71948;BME280;63257;55.082;38.772;2023-02-03T05:18:37;99286.06;;;1.26;72.79
71948;BME280;63257;55.082;38.772;2023-02-03T05:21:03;99290.34;;;1.29;72.60
71948;BME280;63257;55.082;38.772;2023-02-03T05:23:29;99243.66;;;0.91;72.61
71948;BME280;63257;55.082;38.772;2023-02-03T05:25:55;99286.06;;;1.28;72.41
71948;BME280;63257;55.082;38.772;2023-02-03T05:28:21;99285.97;;;1.31;73.54
71948;BME280;63257;55.082;38.772;2023-02-03T05:30:46;99292.75;;;1.37;72.82
71948;BME280;63257;55.082;38.772;2023-02-03T05:33:12;99297.03;;;1.39;72.23
71948;BME280;63257;55.082;38.772;2023-02-03T05:35:39;99291.84;;;1.39;72.39
71948;BME280;63257;55.082;38.772;2023-02-03T05:38:05;99300.47;;;1.40;73.00
71948;BME280;63257;55.082;38.772;2023-02-03T05:40:31;99273.88;;;1.30;72.47
71948;BME280;63257;55.082;38.772;2023-02-03T05:43:15;99289.09;;;1.44;72.26
71948;BME280;63257;55.082;38.772;2023-02-03T05:45:42;99283.94;;;1.42;72.45
71948;BME280;63257;55.082;38.772;2023-02-03T05:48:08;99295.09;;;1.47;72.57
71948;BME280;63257;55.082;38.772;2023-02-03T05:50:35;99289.06;;;1.45;72.21
71948;BME280;63257;55.082;38.772;2023-02-03T05:53:07;99298.53;;;1.48;72.25
71948;BME280;63257;55.082;38.772;2023-02-03T05:55:33;99265.91;;;1.36;72.21
71948;BME280;63257;55.082;38.772;2023-02-03T05:57:59;99294.03;;;1.55;71.75
71948;BME280;63257;55.082;38.772;2023-02-03T06:00:26;99289.56;;;1.60;71.69
71948;BME280;63257;55.082;38.772;2023-02-03T06:02:54;99300.56;;;1.69;71.47
71948;BME280;63257;55.082;38.772;2023-02-03T06:05:22;99292.19;;;1.58;71.76
71948;BME280;63257;55.082;38.772;2023-02-03T06:07:49;99287.59;;;1.68;70.99
71948;BME280;63257;55.082;38.772;2023-02-03T06:10:16;99290.94;;;1.73;70.65
71948;BME280;63257;55.082;38.772;2023-02-03T06:12:42;99294.19;;;1.81;71.10
71948;BME280;63257;55.082;38.772;2023-02-03T06:15:09;99311.53;;;1.81;71.33
71948;BME280;63257;55.082;38.772;2023-02-03T06:17:35;99302.81;;;1.82;71.25
71948;BME280;63257;55.082;38.772;2023-02-03T06:20:06;99296.94;;;1.75;71.29
71948;BME280;63257;55.082;38.772;2023-02-03T06:22:33;99302.00;;;1.80;70.89
71948;BME280;63257;55.082;38.772;2023-02-03T06:24:59;99290.94;;;1.73;70.92
71948;BME280;63257;55.082;38.772;2023-02-03T06:27:25;99297.81;;;1.74;70.67
71948;BME280;63257;55.082;38.772;2023-02-03T06:29:51;99300.50;;;1.71;71.30
71948;BME280;63257;55.082;38.772;2023-02-03T06:32:18;99287.50;;;1.71;70.92
71948;BME280;63257;55.082;38.772;2023-02-03T06:34:44;99300.28;;;1.80;70.88
71948;BME280;63257;55.082;38.772;2023-02-03T06:37:10;99304.41;;;1.88;71.02
71948;BME280;63257;55.082;38.772;2023-02-03T06:39:36;99298.41;;;1.85;71.00
71948;BME280;63257;55.082;38.772;2023-02-03T06:42:01;99299.88;;;1.94;70.95
71948;BME280;63257;55.082;38.772;2023-02-03T06:44:27;99299.69;;;2.00;71.03
71948;BME280;63257;55.082;38.772;2023-02-03T06:46:53;99295.31;;;2.02;70.67
71948;BME280;63257;55.082;38.772;2023-02-03T06:49:23;99271.94;;;2.01;70.24
71948;BME280;63257;55.082;38.772;2023-02-03T06:51:49;99286.31;;;2.14;70.54
71948;BME280;63257;55.082;38.772;2023-02-03T06:54:17;99284.50;;;2.16;70.32
71948;BME280;63257;55.082;38.772;2023-02-03T06:56:43;99283.72;;;2.13;70.61
71948;BME280;63257;55.082;38.772;2023-02-03T06:59:09;99285.38;;;2.15;70.38
71948;BME280;63257;55.082;38.772;2023-02-03T07:01:36;99292.34;;;2.15;70.57
71948;BME280;63257;55.082;38.772;2023-02-03T07:04:02;99286.38;;;2.11;70.63
71948;BME280;63257;55.082;38.772;2023-02-03T07:06:29;99281.31;;;2.07;70.87
71948;BME280;63257;55.082;38.772;2023-02-03T07:09:02;99289.69;;;2.16;70.43
71948;BME280;63257;55.082;38.772;2023-02-03T07:11:29;99294.75;;;2.23;70.74
71948;BME280;63257;55.082;38.772;2023-02-03T07:13:55;99292.31;;;2.16;70.72
71948;BME280;63257;55.082;38.772;2023-02-03T07:16:21;99290.47;;;2.20;70.61
71948;BME280;63257;55.082;38.772;2023-02-03T07:18:48;99289.47;;;2.24;71.00
71948;BME280;63257;55.082;38.772;2023-02-03T07:21:15;99272.94;;;2.25;70.47
71948;BME280;63257;55.082;38.772;2023-02-03T07:23:41;99292.63;;;2.35;70.52
71948;BME280;63257;55.082;38.772;2023-02-03T07:26:09;99296.94;;;2.36;70.34
71948;BME280;63257;55.082;38.772;2023-02-03T07:28:35;99302.13;;;2.36;70.61
71948;BME280;63257;55.082;38.772;2023-02-03T07:31:01;99299.47;;;2.38;70.67
71948;BME280;63257;55.082;38.772;2023-02-03T07:33:30;99294.00;;;2.47;70.19
71948;BME280;63257;55.082;38.772;2023-02-03T07:40:14;99288.38;;;2.61;69.62
71948;BME280;63257;55.082;38.772;2023-02-03T07:42:45;99287.09;;;2.73;69.54
71948;BME280;63257;55.082;38.772;2023-02-03T07:45:13;99288.53;;;2.83;68.97
71948;BME280;63257;55.082;38.772;2023-02-03T07:47:40;99286.31;;;2.98;68.65
71948;BME280;63257;55.082;38.772;2023-02-03T07:50:07;99286.19;;;3.02;68.11
71948;BME280;63257;55.082;38.772;2023-02-03T07:52:34;99283.31;;;3.10;68.11
71948;BME280;63257;55.082;38.772;2023-02-03T07:55:00;99273.81;;;3.09;67.66
71948;BME280;63257;55.082;38.772;2023-02-03T07:57:26;99280.63;;;3.13;67.73
71948;BME280;63257;55.082;38.772;2023-02-03T07:59:52;99287.38;;;3.19;67.63
71948;BME280;63257;55.082;38.772;2023-02-03T08:06:42;99266.97;;;3.05;67.85
71948;BME280;63257;55.082;38.772;2023-02-03T08:09:08;99271.81;;;3.16;67.74
71948;BME280;63257;55.082;38.772;2023-02-03T08:11:34;99281.28;;;3.18;67.75
71948;BME280;63257;55.082;38.772;2023-02-03T08:14:00;99283.00;;;3.19;67.40
71948;BME280;63257;55.082;38.772;2023-02-03T08:16:25;99283.41;;;3.07;68.04
71948;BME280;63257;55.082;38.772;2023-02-03T08:18:52;99292.72;;;3.14;68.20
71948;BME280;63257;55.082;38.772;2023-02-03T08:21:17;99280.81;;;3.07;68.13
71948;BME280;63257;55.082;38.772;2023-02-03T08:23:45;99285.66;;;2.91;68.48
71948;BME280;63257;55.082;38.772;2023-02-03T08:26:10;99292.69;;;2.89;68.81
71948;BME280;63257;55.082;38.772;2023-02-03T08:28:36;99257.84;;;2.65;69.11
71948;BME280;63257;55.082;38.772;2023-02-03T08:31:11;99288.63;;;2.80;69.28
71948;BME280;63257;55.082;38.772;2023-02-03T08:33:37;99277.25;;;2.83;69.03
71948;BME280;63257;55.082;38.772;2023-02-03T08:36:04;99279.25;;;2.75;69.67
71948;BME280;63257;55.082;38.772;2023-02-03T08:38:31;99289.22;;;2.62;70.22
71948;BME280;63257;55.082;38.772;2023-02-03T08:40:56;99286.66;;;2.60;70.26
71948;BME280;63257;55.082;38.772;2023-02-03T08:43:22;99279.78;;;2.58;70.97
71948;BME280;63257;55.082;38.772;2023-02-03T08:45:48;99277.38;;;2.51;70.90
71948;BME280;63257;55.082;38.772;2023-02-03T08:48:14;99278.44;;;2.44;71.82
71948;BME280;63257;55.082;38.772;2023-02-03T08:50:41;99289.91;;;2.38;72.86
71948;BME280;63257;55.082;38.772;2023-02-03T08:53:09;99284.75;;;2.37;73.44
71948;BME280;63257;55.082;38.772;2023-02-03T08:55:38;99266.03;;;2.52;73.25
71948;BME280;63257;55.082;38.772;2023-02-03T08:58:04;99272.28;;;2.75;73.44
71948;BME280;63257;55.082;38.772;2023-02-03T09:00:30;99268.00;;;3.01;72.46
71948;BME280;63257;55.082;38.772;2023-02-03T09:02:56;99273.38;;;3.21;71.67
71948;BME280;63257;55.082;38.772;2023-02-03T09:05:22;99272.28;;;3.29;70.84
71948;BME280;63257;55.082;38.772;2023-02-03T09:07:48;99272.16;;;3.32;70.81
71948;BME280;63257;55.082;38.772;2023-02-03T09:10:15;99269.97;;;3.45;70.82
71948;BME280;63257;55.082;38.772;2023-02-03T09:12:41;99262.25;;;3.42;70.67
71948;BME280;63257;55.082;38.772;2023-02-03T09:15:08;99251.63;;;3.48;69.93
71948;BME280;63257;55.082;38.772;2023-02-03T09:17:34;99268.25;;;3.69;69.51
71948;BME280;63257;55.082;38.772;2023-02-03T09:20:00;99271.38;;;3.79;68.87
71948;BME280;63257;55.082;38.772;2023-02-03T09:22:26;99271.00;;;3.89;68.72
71948;BME280;63257;55.082;38.772;2023-02-03T09:24:52;99282.00;;;3.98;68.35
71948;BME280;63257;55.082;38.772;2023-02-03T09:27:18;99273.59;;;3.89;68.87
71948;BME280;63257;55.082;38.772;2023-02-03T09:29:44;99274.88;;;3.79;69.43
71948;BME280;63257;55.082;38.772;2023-02-03T09:32:09;99275.88;;;3.75;68.92
71948;BME280;63257;55.082;38.772;2023-02-03T09:34:36;99267.56;;;3.64;68.70
71948;BME280;63257;55.082;38.772;2023-02-03T09:37:02;99275.06;;;3.73;69.12
71948;BME280;63257;55.082;38.772;2023-02-03T09:39:29;99275.81;;;3.77;69.14
71948;BME280;63257;55.082;38.772;2023-02-03T09:47:08;99256.78;;;3.49;69.97
71948;BME280;63257;55.082;38.772;2023-02-03T09:49:43;99258.50;;;3.50;69.82
71948;BME280;63257;55.082;38.772;2023-02-03T09:52:33;99275.34;;;3.65;69.54
71948;BME280;63257;55.082;38.772;2023-02-03T09:55:11;99277.94;;;3.65;69.66
71948;BME280;63257;55.082;38.772;2023-02-03T09:57:46;99256.97;;;3.68;69.69
71948;BME280;63257;55.082;38.772;2023-02-03T10:00:20;99257.75;;;3.70;69.46
71948;BME280;63257;55.082;38.772;2023-02-03T10:02:58;99279.97;;;3.82;69.15
71948;BME280;63257;55.082;38.772;2023-02-03T10:10:39;99276.66;;;3.77;69.79
71948;BME280;63257;55.082;38.772;2023-02-03T10:13:21;99275.75;;;3.78;69.67
71948;BME280;63257;55.082;38.772;2023-02-03T10:20:46;99275.00;;;4.00;69.73
71948;BME280;63257;55.082;38.772;2023-02-03T10:23:16;99270.84;;;4.18;69.13
71948;BME280;63257;55.082;38.772;2023-02-03T10:25:48;99268.31;;;4.15;69.12
71948;BME280;63257;55.082;38.772;2023-02-03T10:28:25;99274.69;;;4.07;69.12
71948;BME280;63257;55.082;38.772;2023-02-03T10:31:00;99272.25;;;4.03;69.21
71948;BME280;63257;55.082;38.772;2023-02-03T10:33:29;99268.06;;;3.99;69.25
71948;BME280;63257;55.082;38.772;2023-02-03T10:36:20;99274.63;;;3.85;70.18
71948;BME280;63257;55.082;38.772;2023-02-03T10:39:20;99267.69;;;3.84;70.15
71948;BME280;63257;55.082;38.772;2023-02-03T10:41:48;99254.31;;;3.70;69.70
71948;BME280;63257;55.082;38.772;2023-02-03T10:48:29;99268.22;;;3.94;70.13
71948;BME280;63257;55.082;38.772;2023-02-03T10:50:56;99265.66;;;3.93;69.49
71948;BME280;63257;55.082;38.772;2023-02-03T10:53:33;99267.25;;;3.97;69.09
71948;BME280;63257;55.082;38.772;2023-02-03T10:58:29;99235.38;;;4.11;68.31
71948;BME280;63257;55.082;38.772;2023-02-03T11:01:03;99258.28;;;4.28;68.12
71948;BME280;63257;55.082;38.772;2023-02-03T11:03:30;99263.09;;;4.38;67.82
71948;BME280;63257;55.082;38.772;2023-02-03T11:06:08;99227.81;;;4.27;67.76
71948;BME280;63257;55.082;38.772;2023-02-03T11:08:38;99255.06;;;4.43;67.35
71948;BME280;63257;55.082;38.772;2023-02-03T11:11:07;99260.63;;;4.34;67.60
71948;BME280;63257;55.082;38.772;2023-02-03T11:13:33;99251.94;;;4.33;68.19
71948;BME280;63257;55.082;38.772;2023-02-03T11:16:13;99261.66;;;4.30;67.57
71948;BME280;63257;55.082;38.772;2023-02-03T11:21:19;99256.69;;;4.23;67.69
71948;BME280;63257;55.082;38.772;2023-02-03T11:26:48;99261.84;;;4.25;67.59
71948;BME280;63257;55.082;38.772;2023-02-03T11:29:23;99264.53;;;4.23;67.81
71948;BME280;63257;55.082;38.772;2023-02-03T11:32:38;99255.53;;;4.31;67.84
71948;BME280;63257;55.082;38.772;2023-02-03T11:41:40;99251.03;;;4.12;67.13
71948;BME280;63257;55.082;38.772;2023-02-03T11:44:14;99259.44;;;4.19;67.36
71948;BME280;63257;55.082;38.772;2023-02-03T11:46:41;99251.94;;;4.33;66.69
71948;BME280;63257;55.082;38.772;2023-02-03T11:52:05;99252.72;;;4.35;66.52
71948;BME280;63257;55.082;38.772;2023-02-03T12:00:10;99247.50;;;4.35;65.71
71948;BME280;63257;55.082;38.772;2023-02-03T12:08:47;99248.44;;;4.34;65.59
71948;BME280;63257;55.082;38.772;2023-02-03T12:29:44;99242.28;;;3.89;66.75
71948;BME280;63257;55.082;38.772;2023-02-03T12:36:38;99248.84;;;3.76;67.44
71948;BME280;63257;55.082;38.772;2023-02-03T12:39:42;99233.53;;;3.67;67.54
71948;BME280;63257;55.082;38.772;2023-02-03T12:42:18;99243.75;;;3.73;66.90
71948;BME280;63257;55.082;38.772;2023-02-03T12:44:51;99236.75;;;3.73;66.82
71948;BME280;63257;55.082;38.772;2023-02-03T12:51:41;99246.25;;;3.76;66.89
71948;BME280;63257;55.082;38.772;2023-02-03T13:02:38;99226.38;;;3.48;67.11
71948;BME280;63257;55.082;38.772;2023-02-03T13:08:31;99243.50;;;3.55;67.91
71948;BME280;63257;55.082;38.772;2023-02-03T13:13:54;99239.09;;;3.58;67.38
71948;BME280;63257;55.082;38.772;2023-02-03T13:16:32;99228.06;;;3.49;66.98
71948;BME280;63257;55.082;38.772;2023-02-03T13:19:09;99236.28;;;3.38;67.52
71948;BME280;63257;55.082;38.772;2023-02-03T13:21:39;99242.28;;;3.40;68.13
71948;BME280;63257;55.082;38.772;2023-02-03T13:24:06;99241.56;;;3.37;67.78
71948;BME280;63257;55.082;38.772;2023-02-03T13:27:06;99245.91;;;3.36;67.29
71948;BME280;63257;55.082;38.772;2023-02-03T13:41:06;99245.59;;;3.20;67.63
71948;BME280;63257;55.082;38.772;2023-02-03T13:43:37;99240.56;;;3.14;67.28
71948;BME280;63257;55.082;38.772;2023-02-03T13:46:26;99242.41;;;3.12;68.05
71948;BME280;63257;55.082;38.772;2023-02-03T13:48:58;99248.47;;;3.13;67.61
71948;BME280;63257;55.082;38.772;2023-02-03T13:51:28;99247.06;;;3.02;67.78
71948;BME280;63257;55.082;38.772;2023-02-03T13:54:01;99257.56;;;3.01;67.97
71948;BME280;63257;55.082;38.772;2023-02-03T13:56:29;99251.78;;;2.91;68.47
71948;BME280;63257;55.082;38.772;2023-02-03T14:01:42;99254.69;;;2.82;69.09
71948;BME280;63257;55.082;38.772;2023-02-03T14:12:17;99254.00;;;2.48;72.76
71948;BME280;63257;55.082;38.772;2023-02-03T14:14:55;99257.66;;;2.43;72.93
71948;BME280;63257;55.082;38.772;2023-02-03T14:20:03;99244.78;;;2.38;73.89
71948;BME280;63257;55.082;38.772;2023-02-03T14:22:30;99233.81;;;2.28;73.98
71948;BME280;63257;55.082;38.772;2023-02-03T14:24:57;99243.91;;;2.39;74.24
71948;BME280;63257;55.082;38.772;2023-02-03T14:27:29;99253.34;;;2.42;73.86
71948;BME280;63257;55.082;38.772;2023-02-03T14:30:06;99232.00;;;2.30;73.99
71948;BME280;63257;55.082;38.772;2023-02-03T14:32:55;99250.09;;;2.35;74.15
71948;BME280;63257;55.082;38.772;2023-02-03T14:35:31;99257.03;;;2.34;74.55
71948;BME280;63257;55.082;38.772;2023-02-03T14:38:09;99254.72;;;2.25;74.36
71948;BME280;63257;55.082;38.772;2023-02-03T14:41:01;99258.94;;;2.29;74.39
71948;BME280;63257;55.082;38.772;2023-02-03T14:43:51;99261.53;;;2.29;74.42
71948;BME280;63257;55.082;38.772;2023-02-03T14:46:43;99254.50;;;2.33;74.31
71948;BME280;63257;55.082;38.772;2023-02-03T14:59:01;99257.94;;;2.33;73.67
71948;BME280;63257;55.082;38.772;2023-02-03T15:04:21;99263.06;;;2.36;74.36
71948;BME280;63257;55.082;38.772;2023-02-03T15:06:50;99257.19;;;2.30;74.74
71948;BME280;63257;55.082;38.772;2023-02-03T15:11:54;99254.59;;;2.30;74.50
71948;BME280;63257;55.082;38.772;2023-02-03T15:14:24;99265.78;;;2.32;74.68
71948;BME280;63257;55.082;38.772;2023-02-03T15:17:00;99264.13;;;2.29;74.09
71948;BME280;63257;55.082;38.772;2023-02-03T15:19:31;99243.81;;;2.12;74.59
71948;BME280;63257;55.082;38.772;2023-02-03T15:21:59;99249.66;;;2.20;75.02
71948;BME280;63257;55.082;38.772;2023-02-03T15:24:32;99247.94;;;2.19;74.27
71948;BME280;63257;55.082;38.772;2023-02-03T15:27:00;99260.88;;;2.23;74.46
71948;BME280;63257;55.082;38.772;2023-02-03T15:29:31;99248.56;;;2.28;74.39
71948;BME280;63257;55.082;38.772;2023-02-03T15:32:02;99259.59;;;2.36;73.88
71948;BME280;63257;55.082;38.772;2023-02-03T15:34:42;99269.84;;;2.42;74.20
71948;BME280;63257;55.082;38.772;2023-02-03T15:37:22;99258.75;;;2.35;74.09
71948;BME280;63257;55.082;38.772;2023-02-03T15:40:04;99262.16;;;2.37;73.97
71948;BME280;63257;55.082;38.772;2023-02-03T15:42:41;99269.06;;;2.38;74.20
71948;BME280;63257;55.082;38.772;2023-02-03T15:47:51;99270.59;;;2.46;74.18
71948;BME280;63257;55.082;38.772;2023-02-03T15:50:29;99267.19;;;2.44;74.10
71948;BME280;63257;55.082;38.772;2023-02-03T15:53:16;99267.56;;;2.31;74.52
71948;BME280;63257;55.082;38.772;2023-02-03T15:55:45;99270.94;;;2.35;74.51
71948;BME280;63257;55.082;38.772;2023-02-03T15:58:22;99258.84;;;2.32;73.74
71948;BME280;63257;55.082;38.772;2023-02-03T16:00:54;99269.84;;;2.42;73.71
71948;BME280;63257;55.082;38.772;2023-02-03T16:03:32;99272.53;;;2.39;74.57
71948;BME280;63257;55.082;38.772;2023-02-03T16:17:55;99281.38;;;2.33;73.52
71948;BME280;63257;55.082;38.772;2023-02-03T16:33:17;99279.53;;;2.37;74.00